createdAt,value
2017-09-25T00:00:40.940Z,0
2017-09-25T00:01:40.901Z,0
2017-09-25T00:02:40.881Z,0
2017-09-25T00:03:40.929Z,0
2017-09-25T00:04:41.260Z,0
2017-09-25T00:05:41.249Z,0
2017-09-25T00:06:40.850Z,0
2017-09-25T00:07:40.809Z,0
2017-09-25T00:08:40.825Z,0
2017-09-25T00:09:40.849Z,0
2017-09-25T00:10:40.783Z,0
2017-09-25T00:11:41.069Z,0
2017-09-25T00:12:40.725Z,0
2017-09-25T00:13:40.793Z,0
2017-09-25T00:14:40.766Z,0
2017-09-25T00:15:40.799Z,0
2017-09-25T00:16:41.089Z,0
2017-09-25T00:17:40.683Z,0
2017-09-25T00:18:40.977Z,0
2017-09-25T00:19:40.690Z,0
2017-09-25T00:20:40.995Z,0
2017-09-25T00:21:40.901Z,0
2017-09-25T00:22:40.920Z,0
2017-09-25T00:23:40.586Z,0
2017-09-25T00:24:40.872Z,0
2017-09-25T00:25:40.872Z,0
2017-09-25T00:26:40.820Z,0
2017-09-25T00:27:40.847Z,0
2017-09-25T00:28:40.501Z,0
2017-09-25T00:29:40.782Z,0
2017-09-25T00:30:40.158Z,0
2017-09-25T00:31:40.720Z,0
2017-09-25T00:32:40.717Z,0
2017-09-25T00:33:40.712Z,0
2017-09-25T00:34:40.392Z,0
2017-09-25T00:35:40.060Z,0
2017-09-25T00:36:40.348Z,0
2017-09-25T00:37:40.340Z,0
2017-09-25T00:38:40.005Z,0
2017-09-25T00:39:40.648Z,0
2017-09-25T00:40:40.364Z,0
2017-09-25T00:41:40.260Z,0
2017-09-25T00:42:40.238Z,0
2017-09-25T00:43:40.237Z,0
2017-09-25T00:44:39.610Z,0
2017-09-25T00:45:40.513Z,0
2017-09-25T00:46:40.184Z,0
2017-09-25T00:47:40.478Z,0
2017-09-25T00:48:40.143Z,0
2017-09-25T00:49:40.111Z,0
2017-09-25T00:50:40.111Z,0
2017-09-25T00:51:39.769Z,0
2017-09-25T00:52:40.373Z,0
2017-09-25T00:53:39.425Z,0
2017-09-25T00:54:40.049Z,0
2017-09-25T00:55:40.027Z,0
2017-09-25T00:56:40.310Z,0
2017-09-25T00:57:40.307Z,0
2017-09-25T00:58:40.284Z,0
2017-09-25T00:59:40.287Z,0
2017-09-25T01:00:39.947Z,0
2017-09-25T01:01:40.246Z,0
2017-09-25T01:02:39.897Z,0
2017-09-25T01:03:39.883Z,0
2017-09-25T01:04:39.869Z,0
2017-09-25T01:05:39.541Z,0
2017-09-25T01:06:39.853Z,0
2017-09-25T01:07:39.576Z,0
2017-09-25T01:08:39.485Z,0
2017-09-25T01:09:39.809Z,0
2017-09-25T01:10:39.453Z,0
2017-09-25T01:11:39.428Z,0
2017-09-25T01:12:40.039Z,0
2017-09-25T01:13:39.731Z,0
2017-09-25T01:14:39.414Z,0
2017-09-25T01:15:39.683Z,0
2017-09-25T01:16:39.656Z,0
2017-09-25T01:17:39.350Z,0
2017-09-25T01:18:39.947Z,0
2017-09-25T01:19:39.008Z,0
2017-09-25T01:20:39.600Z,0
2017-09-25T01:21:39.274Z,0
2017-09-25T01:22:39.259Z,0
2017-09-25T01:23:39.240Z,0
2017-09-25T01:24:38.919Z,0
2017-09-25T01:25:39.838Z,0
2017-09-25T01:26:39.202Z,0
2017-09-25T01:27:39.827Z,0
2017-09-25T01:28:39.463Z,0
2017-09-25T01:29:39.439Z,0
2017-09-25T01:30:39.747Z,0
2017-09-25T01:31:39.529Z,0
2017-09-25T01:32:39.091Z,0
2017-09-25T01:33:39.198Z,0
2017-09-25T01:34:39.372Z,0
2017-09-25T01:35:39.671Z,0
2017-09-25T01:36:39.029Z,0
2017-09-25T01:37:39.623Z,0
2017-09-25T01:38:38.988Z,0
2017-09-25T01:39:39.629Z,0
2017-09-25T01:40:38.350Z,0
2017-09-25T01:41:38.719Z,0
2017-09-25T01:42:39.575Z,0
2017-09-25T01:43:39.533Z,0
2017-09-25T01:44:38.899Z,0
2017-09-25T01:45:38.938Z,0
2017-09-25T01:46:39.177Z,0
2017-09-25T01:47:39.250Z,0
2017-09-25T01:48:39.128Z,0
2017-09-25T01:49:39.139Z,0
2017-09-25T01:50:38.794Z,0
2017-09-25T01:51:38.468Z,0
2017-09-25T01:52:39.370Z,0
2017-09-25T01:53:39.073Z,0
2017-09-25T01:54:39.020Z,0
2017-09-25T01:55:38.708Z,0
2017-09-25T01:56:38.990Z,0
2017-09-25T01:57:38.664Z,0
2017-09-25T01:58:38.414Z,0
2017-09-25T01:59:38.647Z,0
2017-09-25T02:00:39.245Z,0
2017-09-25T02:01:38.589Z,0
2017-09-25T02:02:39.212Z,0
2017-09-25T02:03:38.868Z,0
2017-09-25T02:04:38.259Z,0
2017-09-25T02:05:38.540Z,0
2017-09-25T02:06:38.519Z,0
2017-09-25T02:07:38.500Z,0
2017-09-25T02:08:38.490Z,0
2017-09-25T02:09:38.819Z,0
2017-09-25T02:10:38.819Z,0
2017-09-25T02:11:38.480Z,0
2017-09-25T02:12:38.430Z,0
2017-09-25T02:13:39.011Z,0
2017-09-25T02:14:38.387Z,0
2017-09-25T02:15:38.681Z,0
2017-09-25T02:16:38.664Z,0
2017-09-25T02:17:38.326Z,0
2017-09-25T02:18:38.690Z,0
2017-09-25T02:19:38.669Z,0
2017-09-25T02:20:38.580Z,0
2017-09-25T02:21:38.638Z,0
2017-09-25T02:22:38.261Z,0
2017-09-25T02:23:38.309Z,0
2017-09-25T02:24:38.839Z,0
2017-09-25T02:25:38.510Z,0
2017-09-25T02:26:38.225Z,0
2017-09-25T02:27:38.510Z,0
2017-09-25T02:28:38.160Z,0
2017-09-25T02:29:38.458Z,0
2017-09-25T02:30:38.480Z,0
2017-09-25T02:31:38.491Z,0
2017-09-25T02:32:37.799Z,0
2017-09-25T02:33:38.372Z,0
2017-09-25T02:34:38.359Z,0
2017-09-25T02:35:38.471Z,0
2017-09-25T02:36:38.393Z,0
2017-09-25T02:37:38.331Z,0
2017-09-25T02:38:38.318Z,0
2017-09-25T02:39:37.709Z,0
2017-09-25T02:40:38.266Z,0
2017-09-25T02:41:38.568Z,0
2017-09-25T02:42:38.540Z,0
2017-09-25T02:43:38.206Z,0
2017-09-25T02:44:38.252Z,0
2017-09-25T02:45:38.198Z,0
2017-09-25T02:46:38.500Z,0
2017-09-25T02:47:38.168Z,0
2017-09-25T02:48:38.111Z,0
2017-09-25T02:49:37.830Z,0
2017-09-25T02:50:37.766Z,0
2017-09-25T02:51:37.486Z,0
2017-09-25T02:52:38.489Z,0
2017-09-25T02:53:38.045Z,0
2017-09-25T02:54:38.344Z,0
2017-09-25T02:55:38.338Z,0
2017-09-25T02:56:38.420Z,0
2017-09-25T02:57:37.982Z,0
2017-09-25T02:58:38.287Z,0
2017-09-25T02:59:38.260Z,0
2017-09-25T03:00:37.970Z,0
2017-09-25T03:01:37.910Z,0
2017-09-25T03:02:38.211Z,0
2017-09-25T03:03:37.906Z,0
2017-09-25T03:04:37.919Z,0
2017-09-25T03:05:37.835Z,0
2017-09-25T03:06:38.139Z,0
2017-09-25T03:07:37.795Z,0
2017-09-25T03:08:37.771Z,0
2017-09-25T03:09:37.150Z,0
2017-09-25T03:10:37.414Z,0
2017-09-25T03:11:38.099Z,0
2017-09-25T03:12:38.018Z,0
2017-09-25T03:13:37.130Z,0
2017-09-25T03:14:37.367Z,0
2017-09-25T03:15:37.739Z,0
2017-09-25T03:16:37.645Z,0
2017-09-25T03:17:37.340Z,0
2017-09-25T03:18:37.600Z,0
2017-09-25T03:19:37.893Z,0
2017-09-25T03:20:37.891Z,0
2017-09-25T03:21:37.894Z,0
2017-09-25T03:22:37.806Z,0
2017-09-25T03:23:37.250Z,0
2017-09-25T03:24:36.890Z,0
2017-09-25T03:25:37.559Z,0
2017-09-25T03:26:37.151Z,0
2017-09-25T03:27:37.992Z,0
2017-09-25T03:28:37.492Z,0
2017-09-25T03:29:37.110Z,0
2017-09-25T03:30:37.779Z,0
2017-09-25T03:31:36.870Z,0
2017-09-25T03:32:37.438Z,0
2017-09-25T03:33:37.771Z,0
2017-09-25T03:34:36.709Z,0
2017-09-25T03:35:37.324Z,0
2017-09-25T03:36:36.709Z,0
2017-09-25T03:37:37.328Z,0
2017-09-25T03:38:37.658Z,0
2017-09-25T03:39:37.240Z,0
2017-09-25T03:40:37.231Z,0
2017-09-25T03:41:36.685Z,0
2017-09-25T03:42:36.589Z,0
2017-09-25T03:43:36.942Z,0
2017-09-25T03:44:37.518Z,0
2017-09-25T03:45:37.160Z,0
2017-09-25T03:46:36.820Z,0
2017-09-25T03:47:37.090Z,0
2017-09-25T03:48:36.812Z,0
2017-09-25T03:49:36.463Z,0
2017-09-25T03:50:37.073Z,0
2017-09-25T03:51:36.417Z,0
2017-09-25T03:52:37.100Z,0
2017-09-25T03:53:36.399Z,0
2017-09-25T03:54:37.357Z,0
2017-09-25T03:55:36.467Z,0
2017-09-25T03:56:36.766Z,0
2017-09-25T03:57:36.636Z,0
2017-09-25T03:58:37.282Z,0
2017-09-25T03:59:36.593Z,0
2017-09-25T04:00:36.888Z,0
2017-09-25T04:01:37.190Z,0
2017-09-25T04:02:36.572Z,0
2017-09-25T04:03:36.224Z,0
2017-09-25T04:04:36.510Z,0
2017-09-25T04:05:37.120Z,0
2017-09-25T04:06:36.480Z,0
2017-09-25T04:07:37.069Z,0
2017-09-25T04:08:37.070Z,0
2017-09-25T04:09:36.110Z,0
2017-09-25T04:10:36.730Z,0
2017-09-25T04:11:36.110Z,0
2017-09-25T04:12:36.758Z,0
2017-09-25T04:13:36.403Z,0
2017-09-25T04:14:36.024Z,0
2017-09-25T04:15:36.319Z,0
2017-09-25T04:16:36.330Z,0
2017-09-25T04:17:36.319Z,0
2017-09-25T04:18:36.583Z,0
2017-09-25T04:19:36.567Z,0
2017-09-25T04:20:36.240Z,0
2017-09-25T04:21:36.534Z,0
2017-09-25T04:22:36.213Z,0
2017-09-25T04:23:36.248Z,0
2017-09-25T04:24:36.488Z,0
2017-09-25T04:25:35.949Z,0
2017-09-25T04:26:36.441Z,0
2017-09-25T04:27:36.538Z,0
2017-09-25T04:28:36.788Z,0
2017-09-25T04:29:36.091Z,0
2017-09-25T04:30:36.076Z,0
2017-09-25T04:31:36.039Z,0
2017-09-25T04:32:36.062Z,0
2017-09-25T04:33:36.310Z,0
2017-09-25T04:34:36.001Z,0
2017-09-25T04:35:35.992Z,0
2017-09-25T04:36:36.281Z,0
2017-09-25T04:37:35.960Z,0
2017-09-25T04:38:35.998Z,0
2017-09-25T04:39:35.608Z,0
2017-09-25T04:40:35.902Z,0
2017-09-25T04:41:35.904Z,0
2017-09-25T04:42:35.914Z,0
2017-09-25T04:43:35.861Z,0
2017-09-25T04:44:35.531Z,0
2017-09-25T04:45:36.141Z,0
2017-09-25T04:46:35.806Z,0
2017-09-25T04:47:35.766Z,0
2017-09-25T04:48:36.065Z,0
2017-09-25T04:49:35.450Z,0
2017-09-25T04:50:36.033Z,0
2017-09-25T04:51:36.020Z,0
2017-09-25T04:52:36.000Z,0
2017-09-25T04:53:36.320Z,0
2017-09-25T04:54:36.310Z,0
2017-09-25T04:55:35.643Z,0
2017-09-25T04:56:35.959Z,0
2017-09-25T04:57:35.921Z,0
2017-09-25T04:58:35.920Z,0
2017-09-25T04:59:35.910Z,0
2017-09-25T05:00:36.178Z,0
2017-09-25T05:01:36.163Z,0
2017-09-25T05:02:35.842Z,0
2017-09-25T05:03:36.132Z,0
2017-09-25T05:04:36.129Z,0
2017-09-25T05:05:35.785Z,0
2017-09-25T05:06:36.091Z,0
2017-09-25T05:07:36.081Z,0
2017-09-25T05:08:35.820Z,0
2017-09-25T05:09:35.095Z,0
2017-09-25T05:10:35.817Z,0
2017-09-25T05:11:36.011Z,0
2017-09-25T05:12:35.040Z,0
2017-09-25T05:13:35.340Z,0
2017-09-25T05:14:35.965Z,0
2017-09-25T05:15:35.932Z,0
2017-09-25T05:16:35.960Z,0
2017-09-25T05:17:35.924Z,0
2017-09-25T05:18:35.880Z,0
2017-09-25T05:19:35.844Z,0
2017-09-25T05:20:35.530Z,0
2017-09-25T05:21:35.522Z,0
2017-09-25T05:22:35.497Z,0
2017-09-25T05:23:35.484Z,0
2017-09-25T05:24:35.488Z,0
2017-09-25T05:25:35.451Z,0
2017-09-25T05:26:35.430Z,0
2017-09-25T05:27:35.151Z,0
2017-09-25T05:28:35.080Z,0
2017-09-25T05:29:35.056Z,0
2017-09-25T05:30:35.358Z,0
2017-09-25T05:31:35.342Z,0
2017-09-25T05:32:35.321Z,0
2017-09-25T05:33:35.340Z,0
2017-09-25T05:34:35.592Z,0
2017-09-25T05:35:35.601Z,0
2017-09-25T05:36:35.568Z,0
2017-09-25T05:37:35.560Z,0
2017-09-25T05:38:35.561Z,0
2017-09-25T05:39:35.501Z,0
2017-09-25T05:40:35.500Z,0
2017-09-25T05:41:34.898Z,0
2017-09-25T05:42:34.948Z,0
2017-09-25T05:43:35.150Z,0
2017-09-25T05:44:34.815Z,0
2017-09-25T05:45:34.478Z,0
2017-09-25T05:46:35.204Z,0
2017-09-25T05:47:35.075Z,5
2017-09-25T05:48:35.070Z,5
2017-09-25T05:49:35.349Z,5
2017-09-25T05:50:35.076Z,5
2017-09-25T05:51:35.041Z,5
2017-09-25T05:52:34.360Z,5
2017-09-25T05:53:34.969Z,5
2017-09-25T05:54:35.283Z,5
2017-09-25T05:55:34.951Z,5
2017-09-25T05:56:34.924Z,5
2017-09-25T05:57:34.581Z,5
2017-09-25T05:58:34.631Z,5
2017-09-25T05:59:34.902Z,10
2017-09-25T06:00:34.558Z,10
2017-09-25T06:01:34.607Z,10
2017-09-25T06:02:34.500Z,10
2017-09-25T06:03:34.180Z,10
2017-09-25T06:04:35.088Z,10
2017-09-25T06:05:34.743Z,10
2017-09-25T06:06:34.821Z,10
2017-09-25T06:07:34.418Z,15
2017-09-25T06:08:35.026Z,15
2017-09-25T06:09:34.994Z,15
2017-09-25T06:10:34.986Z,15
2017-09-25T06:11:34.700Z,20
2017-09-25T06:12:34.466Z,20
2017-09-25T06:13:34.321Z,25
2017-09-25T06:14:34.612Z,30
2017-09-25T06:15:34.898Z,30
2017-09-25T06:16:34.901Z,30
2017-09-25T06:17:33.635Z,35
2017-09-25T06:18:34.647Z,40
2017-09-25T06:19:34.556Z,40
2017-09-25T06:20:34.810Z,50
2017-09-25T06:21:34.169Z,60
2017-09-25T06:22:34.911Z,70
2017-09-25T06:23:34.134Z,70
2017-09-25T06:24:33.899Z,75
2017-09-25T06:25:34.749Z,80
2017-09-25T06:26:34.133Z,80
2017-09-25T06:27:34.410Z,85
2017-09-25T06:28:33.748Z,95
2017-09-25T06:29:34.659Z,105
2017-09-25T06:30:34.625Z,115
2017-09-25T06:31:33.698Z,125
2017-09-25T06:32:33.968Z,130
2017-09-25T06:33:34.298Z,135
2017-09-25T06:34:34.290Z,135
2017-09-25T06:35:34.240Z,135
2017-09-25T06:36:33.923Z,135
2017-09-25T06:37:33.601Z,145
2017-09-25T06:38:34.537Z,240
2017-09-25T06:39:34.529Z,385
2017-09-25T06:40:34.210Z,460
2017-09-25T06:41:34.160Z,490
2017-09-25T06:42:34.627Z,495
2017-09-25T06:43:33.799Z,480
2017-09-25T06:44:33.802Z,470
2017-09-25T06:45:33.789Z,470
2017-09-25T06:46:33.825Z,470
2017-09-25T06:47:34.391Z,495
2017-09-25T06:48:33.759Z,510
2017-09-25T06:49:33.715Z,515
2017-09-25T06:50:34.030Z,505
2017-09-25T06:51:33.685Z,500
2017-09-25T06:52:33.691Z,515
2017-09-25T06:53:33.666Z,520
2017-09-25T06:54:34.324Z,520
2017-09-25T06:55:33.643Z,435
2017-09-25T06:56:33.666Z,275
2017-09-25T06:57:33.924Z,255
2017-09-25T06:58:33.920Z,225
2017-09-25T06:59:33.591Z,220
2017-09-25T07:00:33.601Z,220
2017-09-25T07:01:33.889Z,220
2017-09-25T07:02:33.640Z,225
2017-09-25T07:03:33.870Z,225
2017-09-25T07:04:34.151Z,235
2017-09-25T07:05:34.142Z,240
2017-09-25T07:06:33.191Z,240
2017-09-25T07:07:33.790Z,235
2017-09-25T07:08:33.473Z,240
2017-09-25T07:09:33.788Z,235
2017-09-25T07:10:33.762Z,225
2017-09-25T07:11:33.732Z,190
2017-09-25T07:12:33.799Z,185
2017-09-25T07:13:34.024Z,175
2017-09-25T07:14:33.726Z,175
2017-09-25T07:15:33.703Z,195
2017-09-25T07:16:33.684Z,180
2017-09-25T07:17:33.672Z,150
2017-09-25T07:18:33.409Z,130
2017-09-25T07:19:33.336Z,100
2017-09-25T07:20:33.760Z,90
2017-09-25T07:21:33.629Z,90
2017-09-25T07:22:33.321Z,90
2017-09-25T07:23:33.600Z,85
2017-09-25T07:24:33.289Z,80
2017-09-25T07:25:33.572Z,80
2017-09-25T07:26:33.549Z,75
2017-09-25T07:27:33.863Z,65
2017-09-25T07:28:33.534Z,55
2017-09-25T07:29:33.581Z,65
2017-09-25T07:30:33.811Z,70
2017-09-25T07:31:33.502Z,70
2017-09-25T07:32:33.800Z,65
2017-09-25T07:33:33.452Z,65
2017-09-25T07:34:33.748Z,75
2017-09-25T07:35:33.721Z,85
2017-09-25T07:36:33.741Z,95
2017-09-25T07:37:33.395Z,120
2017-09-25T07:38:33.362Z,175
2017-09-25T07:39:33.721Z,150
2017-09-25T07:40:33.660Z,155
2017-09-25T07:41:33.690Z,200
2017-09-25T07:42:33.641Z,250
2017-09-25T07:43:33.615Z,410
2017-09-25T07:44:33.610Z,400
2017-09-25T07:45:33.080Z,375
2017-09-25T07:46:33.262Z,935
2017-09-25T07:47:33.286Z,920
2017-09-25T07:48:33.540Z,965
2017-09-25T07:49:33.542Z,1030
2017-09-25T07:50:33.525Z,1005
2017-09-25T07:51:32.962Z,1060
2017-09-25T07:52:33.269Z,1095
2017-09-25T07:53:33.179Z,1145
2017-09-25T07:54:32.890Z,1135
2017-09-25T07:55:33.143Z,1180
2017-09-25T07:56:33.589Z,1200
2017-09-25T07:57:33.110Z,1235
2017-09-25T07:58:33.109Z,1210
2017-09-25T07:59:33.426Z,1210
2017-09-25T08:00:33.108Z,1200
2017-09-25T08:01:33.072Z,1155
2017-09-25T08:02:33.481Z,1205
2017-09-25T08:03:33.121Z,740
2017-09-25T08:04:33.071Z,445
2017-09-25T08:05:33.115Z,945
2017-09-25T08:06:33.111Z,1060
2017-09-25T08:07:32.720Z,315
2017-09-25T08:08:33.050Z,1085
2017-09-25T08:09:33.050Z,385
2017-09-25T08:10:33.444Z,1125
2017-09-25T08:11:32.684Z,350
2017-09-25T08:12:33.451Z,345
2017-09-25T08:13:33.050Z,745
2017-09-25T08:14:32.656Z,555
2017-09-25T08:15:32.761Z,480
2017-09-25T08:16:32.968Z,415
2017-09-25T08:17:33.278Z,390
2017-09-25T08:18:33.310Z,515
2017-09-25T08:19:32.921Z,605
2017-09-25T08:20:33.279Z,365
2017-09-25T08:21:32.904Z,735
2017-09-25T08:22:32.694Z,960
2017-09-25T08:23:32.920Z,615
2017-09-25T08:24:33.243Z,540
2017-09-25T08:25:33.196Z,875
2017-09-25T08:26:32.599Z,490
2017-09-25T08:27:33.178Z,1190
2017-09-25T08:28:32.913Z,990
2017-09-25T08:29:33.150Z,1225
2017-09-25T08:30:33.180Z,1060
2017-09-25T08:31:33.632Z,1255
2017-09-25T08:32:33.584Z,1220
2017-09-25T08:33:33.150Z,965
2017-09-25T08:34:33.151Z,1250
2017-09-25T08:35:33.126Z,1265
2017-09-25T08:36:32.502Z,1210
2017-09-25T08:37:32.800Z,1260
2017-09-25T08:38:32.880Z,1340
2017-09-25T08:39:33.072Z,1330
2017-09-25T08:40:32.447Z,1205
2017-09-25T08:41:33.056Z,1085
2017-09-25T08:42:33.055Z,1190
2017-09-25T08:43:32.791Z,325
2017-09-25T08:44:32.411Z,210
2017-09-25T08:45:33.139Z,205
2017-09-25T08:46:32.720Z,285
2017-09-25T08:47:32.778Z,1215
2017-09-25T08:48:32.403Z,310
2017-09-25T08:49:33.015Z,1110
2017-09-25T08:50:32.690Z,280
2017-09-25T08:51:32.379Z,235
2017-09-25T08:52:33.021Z,235
2017-09-25T08:53:32.663Z,305
2017-09-25T08:54:32.350Z,1030
2017-09-25T08:55:32.648Z,380
2017-09-25T08:56:32.322Z,570
2017-09-25T08:57:31.989Z,1190
2017-09-25T08:58:32.604Z,1235
2017-09-25T08:59:32.631Z,1285
2017-09-25T09:00:32.309Z,1320
2017-09-25T09:01:32.600Z,1305
2017-09-25T09:02:32.272Z,1235
2017-09-25T09:03:32.629Z,1255
2017-09-25T09:04:32.560Z,1300
2017-09-25T09:05:32.893Z,1375
2017-09-25T09:06:32.890Z,1315
2017-09-25T09:07:32.873Z,775
2017-09-25T09:08:32.251Z,550
2017-09-25T09:09:32.570Z,1260
2017-09-25T09:10:31.590Z,1080
2017-09-25T09:11:32.520Z,1225
2017-09-25T09:12:32.840Z,490
2017-09-25T09:13:32.523Z,365
2017-09-25T09:14:32.220Z,425
2017-09-25T09:15:32.491Z,500
2017-09-25T09:16:32.828Z,395
2017-09-25T09:17:32.480Z,450
2017-09-25T09:18:32.546Z,550
2017-09-25T09:19:32.794Z,1035
2017-09-25T09:20:32.473Z,1040
2017-09-25T09:21:32.478Z,895
2017-09-25T09:22:32.790Z,1230
2017-09-25T09:23:32.798Z,1135
2017-09-25T09:24:31.805Z,975
2017-09-25T09:25:32.758Z,385
2017-09-25T09:26:32.446Z,355
2017-09-25T09:27:32.442Z,330
2017-09-25T09:28:32.760Z,370
2017-09-25T09:29:32.432Z,645
2017-09-25T09:30:31.783Z,405
2017-09-25T09:31:32.398Z,385
2017-09-25T09:32:32.469Z,490
2017-09-25T09:33:32.391Z,475
2017-09-25T09:34:32.761Z,365
2017-09-25T09:35:32.680Z,240
2017-09-25T09:36:32.060Z,290
2017-09-25T09:37:32.389Z,195
2017-09-25T09:38:32.050Z,175
2017-09-25T09:39:32.344Z,155
2017-09-25T09:40:32.331Z,125
2017-09-25T09:41:32.320Z,120
2017-09-25T09:42:32.619Z,115
2017-09-25T09:43:31.986Z,110
2017-09-25T09:44:32.271Z,110
2017-09-25T09:45:32.626Z,110
2017-09-25T09:46:32.294Z,110
2017-09-25T09:47:32.282Z,110
2017-09-25T09:48:32.570Z,115
2017-09-25T09:49:32.584Z,120
2017-09-25T09:50:31.913Z,130
2017-09-25T09:51:32.511Z,145
2017-09-25T09:52:31.912Z,155
2017-09-25T09:53:32.524Z,155
2017-09-25T09:54:31.893Z,160
2017-09-25T09:55:31.878Z,160
2017-09-25T09:56:31.541Z,170
2017-09-25T09:57:32.483Z,185
2017-09-25T09:58:32.140Z,200
2017-09-25T09:59:32.452Z,220
2017-09-25T10:00:31.804Z,245
2017-09-25T10:01:32.412Z,230
2017-09-25T10:02:31.482Z,220
2017-09-25T10:03:31.767Z,210
2017-09-25T10:04:32.393Z,225
2017-09-25T10:05:32.377Z,250
2017-09-25T10:06:32.374Z,290
2017-09-25T10:07:31.738Z,385
2017-09-25T10:08:31.721Z,410
2017-09-25T10:09:32.070Z,320
2017-09-25T10:10:32.021Z,320
2017-09-25T10:11:32.432Z,255
2017-09-25T10:12:32.011Z,240
2017-09-25T10:13:32.285Z,250
2017-09-25T10:14:31.660Z,290
2017-09-25T10:15:31.676Z,325
2017-09-25T10:16:31.721Z,365
2017-09-25T10:17:31.620Z,385
2017-09-25T10:18:32.280Z,560
2017-09-25T10:19:31.280Z,335
2017-09-25T10:20:31.616Z,245
2017-09-25T10:21:31.891Z,245
2017-09-25T10:22:31.672Z,260
2017-09-25T10:23:31.237Z,275
2017-09-25T10:24:31.851Z,235
2017-09-25T10:25:31.927Z,215
2017-09-25T10:26:31.274Z,195
2017-09-25T10:27:31.834Z,190
2017-09-25T10:28:32.031Z,180
2017-09-25T10:29:31.839Z,190
2017-09-25T10:30:31.277Z,215
2017-09-25T10:31:31.485Z,180
2017-09-25T10:32:31.811Z,190
2017-09-25T10:33:31.156Z,190
2017-09-25T10:34:32.065Z,190
2017-09-25T10:35:31.441Z,185
2017-09-25T10:36:31.202Z,185
2017-09-25T10:37:32.032Z,185
2017-09-25T10:38:32.242Z,190
2017-09-25T10:39:32.032Z,190
2017-09-25T10:40:31.682Z,185
2017-09-25T10:41:31.363Z,180
2017-09-25T10:42:31.096Z,170
2017-09-25T10:43:31.951Z,165
2017-09-25T10:44:31.954Z,150
2017-09-25T10:45:31.657Z,145
2017-09-25T10:46:31.611Z,145
2017-09-25T10:47:31.648Z,135
2017-09-25T10:48:31.330Z,135
2017-09-25T10:49:31.290Z,125
2017-09-25T10:50:31.585Z,120
2017-09-25T10:51:31.869Z,120
2017-09-25T10:52:31.311Z,115
2017-09-25T10:53:31.543Z,115
2017-09-25T10:54:31.546Z,115
2017-09-25T10:55:31.240Z,115
2017-09-25T10:56:31.180Z,115
2017-09-25T10:57:31.217Z,115
2017-09-25T10:58:31.561Z,120
2017-09-25T10:59:31.250Z,120
2017-09-25T11:00:31.434Z,120
2017-09-25T11:01:31.115Z,120
2017-09-25T11:02:31.401Z,125
2017-09-25T11:03:31.492Z,130
2017-09-25T11:04:31.400Z,135
2017-09-25T11:05:31.389Z,135
2017-09-25T11:06:31.372Z,140
2017-09-25T11:07:31.359Z,140
2017-09-25T11:08:31.661Z,140
2017-09-25T11:09:31.384Z,140
2017-09-25T11:10:31.369Z,140
2017-09-25T11:11:31.336Z,140
2017-09-25T11:12:31.280Z,140
2017-09-25T11:13:30.648Z,135
2017-09-25T11:14:31.261Z,130
2017-09-25T11:15:31.310Z,130
2017-09-25T11:16:31.555Z,130
2017-09-25T11:17:30.926Z,130
2017-09-25T11:18:31.250Z,125
2017-09-25T11:19:31.283Z,125
2017-09-25T11:20:31.342Z,120
2017-09-25T11:21:31.243Z,120
2017-09-25T11:22:31.182Z,120
2017-09-25T11:23:31.280Z,120
2017-09-25T11:24:31.211Z,125
2017-09-25T11:25:31.201Z,120
2017-09-25T11:26:31.125Z,120
2017-09-25T11:27:31.429Z,115
2017-09-25T11:28:31.122Z,115
2017-09-25T11:29:31.372Z,115
2017-09-25T11:30:31.398Z,115
2017-09-25T11:31:31.377Z,115
2017-09-25T11:32:31.378Z,115
2017-09-25T11:33:30.707Z,115
2017-09-25T11:34:31.120Z,115
2017-09-25T11:35:31.093Z,115
2017-09-25T11:36:31.312Z,115
2017-09-25T11:37:30.972Z,115
2017-09-25T11:38:30.962Z,115
2017-09-25T11:39:31.279Z,120
2017-09-25T11:40:31.291Z,115
2017-09-25T11:41:31.251Z,115
2017-09-25T11:42:31.206Z,110
2017-09-25T11:43:31.250Z,110
2017-09-25T11:44:31.195Z,110
2017-09-25T11:45:30.549Z,110
2017-09-25T11:46:31.192Z,105
2017-09-25T11:47:30.849Z,100
2017-09-25T11:48:31.152Z,100
2017-09-25T11:49:31.145Z,95
2017-09-25T11:50:31.116Z,90
2017-09-25T11:51:30.768Z,90
2017-09-25T11:52:31.083Z,90
2017-09-25T11:53:31.050Z,85
2017-09-25T11:54:30.107Z,85
2017-09-25T11:55:30.427Z,85
2017-09-25T11:56:31.028Z,85
2017-09-25T11:57:30.767Z,85
2017-09-25T11:58:31.074Z,85
2017-09-25T11:59:30.684Z,85
2017-09-25T12:00:30.980Z,85
2017-09-25T12:01:30.684Z,85
2017-09-25T12:02:30.669Z,85
2017-09-25T12:03:30.328Z,85
2017-09-25T12:04:30.937Z,85
2017-09-25T12:05:30.600Z,85
2017-09-25T12:06:30.278Z,85
2017-09-25T12:07:30.295Z,85
2017-09-25T12:08:30.589Z,90
2017-09-25T12:09:30.891Z,90
2017-09-25T12:10:30.877Z,90
2017-09-25T12:11:30.539Z,90
2017-09-25T12:12:30.847Z,90
2017-09-25T12:13:30.169Z,90
2017-09-25T12:14:30.489Z,90
2017-09-25T12:15:30.146Z,90
2017-09-25T12:16:30.773Z,90
2017-09-25T12:17:30.754Z,85
2017-09-25T12:18:30.115Z,85
2017-09-25T12:19:30.448Z,85
2017-09-25T12:20:30.720Z,85
2017-09-25T12:21:30.364Z,85
2017-09-25T12:22:30.699Z,85
2017-09-25T12:23:30.681Z,80
2017-09-25T12:24:30.703Z,85
2017-09-25T12:25:30.653Z,85
2017-09-25T12:26:30.019Z,85
2017-09-25T12:27:30.653Z,85
2017-09-25T12:28:30.616Z,85
2017-09-25T12:29:30.321Z,85
2017-09-25T12:30:30.249Z,85
2017-09-25T12:31:30.549Z,90
2017-09-25T12:32:30.295Z,90
2017-09-25T12:33:30.228Z,90
2017-09-25T12:34:30.209Z,90
2017-09-25T12:35:29.911Z,90
2017-09-25T12:36:30.498Z,90
2017-09-25T12:37:30.151Z,90
2017-09-25T12:38:30.150Z,90
2017-09-25T12:39:30.151Z,95
2017-09-25T12:40:29.520Z,95
2017-09-25T12:41:30.499Z,95
2017-09-25T12:42:29.802Z,100
2017-09-25T12:43:30.427Z,105
2017-09-25T12:44:30.170Z,110
2017-09-25T12:45:30.070Z,110
2017-09-25T12:46:30.364Z,110
2017-09-25T12:47:30.407Z,110
2017-09-25T12:48:30.037Z,115
2017-09-25T12:49:29.750Z,115
2017-09-25T12:50:30.308Z,110
2017-09-25T12:51:29.998Z,110
2017-09-25T12:52:30.212Z,110
2017-09-25T12:53:30.263Z,110
2017-09-25T12:54:30.365Z,110
2017-09-25T12:55:29.928Z,105
2017-09-25T12:56:30.249Z,100
2017-09-25T12:57:29.889Z,100
2017-09-25T12:58:29.569Z,100
2017-09-25T12:59:30.271Z,100
2017-09-25T13:00:29.620Z,95
2017-09-25T13:01:29.865Z,95
2017-09-25T13:02:29.840Z,95
2017-09-25T13:03:29.507Z,95
2017-09-25T13:04:30.162Z,95
2017-09-25T13:05:29.521Z,95
2017-09-25T13:06:29.809Z,95
2017-09-25T13:07:30.116Z,95
2017-09-25T13:08:30.170Z,95
2017-09-25T13:09:30.076Z,95
2017-09-25T13:10:29.756Z,95
2017-09-25T13:11:30.077Z,95
2017-09-25T13:12:30.071Z,95
2017-09-25T13:13:29.678Z,95
2017-09-25T13:14:29.681Z,90
2017-09-25T13:15:29.645Z,90
2017-09-25T13:16:29.328Z,90
2017-09-25T13:17:29.969Z,90
2017-09-25T13:18:29.407Z,90
2017-09-25T13:19:29.955Z,90
2017-09-25T13:20:29.582Z,95
2017-09-25T13:21:29.582Z,95
2017-09-25T13:22:29.568Z,95
2017-09-25T13:23:29.280Z,95
2017-09-25T13:24:28.930Z,95
2017-09-25T13:25:29.205Z,95
2017-09-25T13:26:29.499Z,95
2017-09-25T13:27:29.228Z,95
2017-09-25T13:28:29.494Z,95
2017-09-25T13:29:29.466Z,95
2017-09-25T13:30:29.149Z,100
2017-09-25T13:31:29.774Z,100
2017-09-25T13:32:29.119Z,95
2017-09-25T13:33:29.108Z,95
2017-09-25T13:34:29.523Z,95
2017-09-25T13:35:29.427Z,95
2017-09-25T13:36:28.436Z,95
2017-09-25T13:37:29.486Z,95
2017-09-25T13:38:29.045Z,90
2017-09-25T13:39:29.339Z,90
2017-09-25T13:40:28.702Z,85
2017-09-25T13:41:29.340Z,85
2017-09-25T13:42:29.584Z,85
2017-09-25T13:43:29.286Z,85
2017-09-25T13:44:29.252Z,85
2017-09-25T13:45:28.958Z,85
2017-09-25T13:46:29.238Z,85
2017-09-25T13:47:29.528Z,85
2017-09-25T13:48:29.527Z,85
2017-09-25T13:49:29.496Z,85
2017-09-25T13:50:28.878Z,85
2017-09-25T13:51:29.225Z,85
2017-09-25T13:52:29.464Z,85
2017-09-25T13:53:28.830Z,85
2017-09-25T13:54:29.137Z,85
2017-09-25T13:55:29.408Z,85
2017-09-25T13:56:29.148Z,80
2017-09-25T13:57:28.778Z,80
2017-09-25T13:58:29.376Z,80
2017-09-25T14:02:37.705Z,75
2017-09-25T14:03:18.484Z,75
2017-09-25T14:04:17.838Z,75
2017-09-25T14:05:18.439Z,70
2017-09-25T14:06:18.419Z,70
2017-09-25T14:07:17.799Z,70
2017-09-25T14:08:17.756Z,70
2017-09-25T14:09:17.788Z,70
2017-09-25T14:10:18.378Z,70
2017-09-25T14:11:18.344Z,70
2017-09-25T14:12:18.348Z,70
2017-09-25T14:13:18.338Z,70
2017-09-25T14:14:18.334Z,70
2017-09-25T14:15:17.700Z,70
2017-09-25T14:16:17.669Z,70
2017-09-25T14:17:17.699Z,70
2017-09-25T14:18:17.970Z,65